createdAt,value
2022-07-25T00:00:33.153Z,97653.00
2022-07-25T00:03:00.396Z,97649.00
2022-07-25T00:05:32.221Z,97650.00
2022-07-25T00:08:03.143Z,97651.00
2022-07-25T00:10:30.298Z,97644.00
2022-07-25T00:12:57.669Z,97644.00
2022-07-25T00:15:24.794Z,97645.00
2022-07-25T00:17:52.092Z,97634.00
2022-07-25T00:20:19.179Z,97639.00
2022-07-25T00:22:46.488Z,97636.00
2022-07-25T00:25:13.702Z,97641.00
2022-07-25T00:27:41.041Z,97643.00
2022-07-25T00:30:09.201Z,97640.00
2022-07-25T00:32:36.560Z,97635.00
2022-07-25T00:35:04.848Z,97641.00
2022-07-25T00:37:32.125Z,97640.00
2022-07-25T00:39:59.268Z,97638.00
2022-07-25T00:42:26.446Z,97637.00
2022-07-25T00:44:53.952Z,97634.00
2022-07-25T00:47:21.051Z,97633.00
2022-07-25T00:49:48.894Z,97633.00
2022-07-25T00:52:16.267Z,97632.00
2022-07-25T00:54:44.135Z,97626.00
2022-07-25T00:57:12.212Z,97626.00
2022-07-25T00:59:39.488Z,97621.00
2022-07-25T01:02:06.664Z,97632.00
2022-07-25T01:04:34.359Z,97621.00
2022-07-25T01:07:02.250Z,97616.00
2022-07-25T01:09:30.194Z,97617.00
2022-07-25T01:11:57.459Z,97614.00
2022-07-25T01:14:24.727Z,97614.00
2022-07-25T01:16:52.181Z,97614.00
2022-07-25T01:19:19.456Z,97612.00
2022-07-25T01:21:46.776Z,97608.00
2022-07-25T01:24:13.982Z,97603.00
2022-07-25T01:26:41.147Z,97607.00
2022-07-25T01:29:08.531Z,97610.00
2022-07-25T01:31:35.736Z,97597.00
2022-07-25T01:34:03.425Z,97595.00
2022-07-25T01:36:31.044Z,97598.00
2022-07-25T01:38:59.094Z,97588.00
2022-07-25T01:41:26.324Z,97592.00
2022-07-25T01:43:53.483Z,97591.00
2022-07-25T01:46:20.763Z,97589.00
2022-07-25T01:48:48.182Z,97595.00
2022-07-25T01:51:15.405Z,97586.00
2022-07-25T01:53:48.238Z,97592.00
2022-07-25T01:56:15.661Z,97582.00
2022-07-25T01:58:42.906Z,97586.00
2022-07-25T02:01:10.225Z,97574.00
2022-07-25T02:03:37.533Z,97568.00
2022-07-25T02:06:07.800Z,97570.00
2022-07-25T02:08:35.698Z,97568.00
2022-07-25T02:11:03.280Z,97569.00
2022-07-25T02:13:30.605Z,97556.00
2022-07-25T02:15:57.944Z,97554.00
2022-07-25T02:18:25.439Z,97552.00
2022-07-25T02:20:52.627Z,97558.00
2022-07-25T02:23:19.898Z,97548.00
2022-07-25T02:25:47.153Z,97543.00
2022-07-25T02:28:14.346Z,97545.00
2022-07-25T02:30:41.600Z,97540.00
2022-07-25T02:33:09.111Z,97541.00
2022-07-25T02:35:36.347Z,97538.00
2022-07-25T02:38:03.585Z,97535.00
2022-07-25T02:40:30.877Z,97531.00
2022-07-25T02:42:57.964Z,97529.00
2022-07-25T02:45:25.411Z,97535.00
2022-07-25T02:47:52.563Z,97541.00
2022-07-25T02:50:19.851Z,97547.00
2022-07-25T02:52:46.955Z,97551.00
2022-07-25T02:55:14.300Z,97550.00
2022-07-25T02:57:41.555Z,97542.00
2022-07-25T03:00:09.934Z,97542.00
2022-07-25T03:02:37.132Z,97544.00
2022-07-25T03:05:09.091Z,97546.00
2022-07-25T03:07:36.323Z,97548.00
2022-07-25T03:10:08.713Z,97540.00
2022-07-25T03:12:39.610Z,97545.00
2022-07-25T03:15:08.324Z,97538.00
2022-07-25T03:17:35.870Z,97541.00
2022-07-25T03:20:03.756Z,97534.00
2022-07-25T03:22:30.987Z,97539.00
2022-07-25T03:24:58.221Z,97541.00
2022-07-25T03:27:25.511Z,97539.00
2022-07-25T03:29:52.959Z,97543.00
2022-07-25T03:32:20.773Z,97547.00
2022-07-25T03:34:47.818Z,97543.00
2022-07-25T03:37:15.298Z,97539.00
2022-07-25T03:39:42.675Z,97536.00
2022-07-25T03:42:09.835Z,97534.00
2022-07-25T03:44:38.099Z,97521.00
2022-07-25T03:47:06.468Z,97526.00
2022-07-25T03:49:33.606Z,97515.00
2022-07-25T03:52:01.025Z,97524.00
2022-07-25T03:54:28.174Z,97514.00
2022-07-25T03:56:55.529Z,97515.00
2022-07-25T03:59:22.815Z,97519.00
2022-07-25T04:01:51.131Z,97516.00
2022-07-25T04:04:19.659Z,97514.00
2022-07-25T04:06:47.591Z,97510.00
2022-07-25T04:09:15.914Z,97513.00
2022-07-25T04:11:43.240Z,97511.00
2022-07-25T04:14:10.960Z,97510.00
2022-07-25T04:16:38.229Z,97515.00
2022-07-25T04:19:07.956Z,97523.00
2022-07-25T04:21:35.765Z,97515.00
2022-07-25T04:24:03.457Z,97515.00
2022-07-25T04:26:30.960Z,97519.00
2022-07-25T04:28:58.899Z,97514.00
2022-07-25T04:31:26.351Z,97512.00
2022-07-25T04:33:53.754Z,97515.00
2022-07-25T04:36:21.075Z,97510.00
2022-07-25T04:38:48.419Z,97500.00
2022-07-25T04:41:15.693Z,97497.00
2022-07-25T04:43:48.305Z,97502.00
2022-07-25T04:46:23.223Z,97497.00
2022-07-25T04:48:51.585Z,97499.00
2022-07-25T04:51:19.286Z,97499.00
2022-07-25T04:53:46.870Z,97502.00
2022-07-25T04:56:14.164Z,97511.00
2022-07-25T04:58:41.380Z,97502.00
2022-07-25T05:01:08.642Z,97504.00
2022-07-25T05:03:36.141Z,97510.00
2022-07-25T05:06:03.539Z,97503.00
2022-07-25T05:08:31.039Z,97500.00
2022-07-25T05:10:58.282Z,97501.00
2022-07-25T05:13:25.522Z,97501.00
2022-07-25T05:15:53.166Z,97498.00
2022-07-25T05:18:20.723Z,97497.00
2022-07-25T05:20:48.033Z,97494.00
2022-07-25T05:23:15.413Z,97500.00
2022-07-25T05:25:42.541Z,97491.00
2022-07-25T05:28:09.706Z,97485.00
2022-07-25T05:30:39.993Z,97487.00
2022-07-25T05:33:07.603Z,97489.00
2022-07-25T05:35:34.960Z,97484.00
2022-07-25T05:38:02.463Z,97484.00
2022-07-25T05:40:29.664Z,97485.00
2022-07-25T05:43:00.960Z,97484.00
2022-07-25T05:45:30.043Z,97485.00
2022-07-25T05:47:57.468Z,97487.00
2022-07-25T05:50:24.808Z,97486.00
2022-07-25T05:52:52.470Z,97487.00
2022-07-25T05:55:19.772Z,97488.00
2022-07-25T05:57:47.025Z,97483.00
2022-07-25T06:00:15.038Z,97478.00
2022-07-25T06:02:42.367Z,97484.00
2022-07-25T06:05:09.863Z,97479.00
2022-07-25T06:07:37.219Z,97483.00
2022-07-25T06:10:05.503Z,97481.00
2022-07-25T06:12:33.765Z,97485.00
2022-07-25T06:15:06.066Z,97476.00
2022-07-25T06:17:33.517Z,97483.00
2022-07-25T06:20:00.762Z,97474.00
2022-07-25T06:22:28.106Z,97477.00
2022-07-25T06:24:55.367Z,97480.00
2022-07-25T06:27:27.459Z,97487.00
2022-07-25T06:29:56.616Z,97488.00
2022-07-25T06:32:23.756Z,97483.00
2022-07-25T06:34:51.330Z,97484.00
2022-07-25T06:37:18.457Z,97484.00
2022-07-25T06:39:46.293Z,97485.00
2022-07-25T06:42:13.834Z,97475.00
2022-07-25T06:44:41.239Z,97481.00
2022-07-25T06:47:12.940Z,97477.00
2022-07-25T06:49:41.846Z,97474.00
2022-07-25T06:52:10.160Z,97469.00
2022-07-25T06:54:37.580Z,97470.00
2022-07-25T06:57:05.308Z,97472.00
2022-07-25T06:59:33.391Z,97469.00
2022-07-25T07:02:01.181Z,97466.00
2022-07-25T07:04:28.379Z,97462.00
2022-07-25T07:06:55.484Z,97466.00
2022-07-25T07:09:22.814Z,97461.00
2022-07-25T07:11:49.964Z,97461.00
2022-07-25T07:14:17.265Z,97457.00
2022-07-25T07:16:44.591Z,97460.00
2022-07-25T07:19:12.154Z,97454.00
2022-07-25T07:21:39.255Z,97458.00
2022-07-25T07:24:12.679Z,97460.00
2022-07-25T07:26:52.877Z,97462.00
2022-07-25T07:29:20.154Z,97460.00
2022-07-25T07:31:48.348Z,97454.00
2022-07-25T07:34:16.385Z,97450.00
2022-07-25T07:36:44.556Z,97445.00
2022-07-25T07:39:12.210Z,97442.00
2022-07-25T07:41:39.727Z,97440.00
2022-07-25T07:44:07.022Z,97440.00
2022-07-25T07:46:34.463Z,97431.00
2022-07-25T07:49:01.952Z,97428.00
2022-07-25T07:51:29.164Z,97429.00
2022-07-25T07:54:15.088Z,97424.00
2022-07-25T07:56:42.414Z,97424.00
2022-07-25T07:59:10.533Z,97425.00
2022-07-25T08:01:37.924Z,97423.00
2022-07-25T08:04:05.668Z,97422.00
2022-07-25T08:06:32.762Z,97421.00
2022-07-25T08:09:00.044Z,97426.00
2022-07-25T08:11:27.153Z,97419.00
2022-07-25T08:13:54.418Z,97419.00
2022-07-25T08:16:21.659Z,97420.00
2022-07-25T08:18:49.010Z,97417.00
2022-07-25T08:21:16.346Z,97418.00
2022-07-25T08:23:46.530Z,97415.00
2022-07-25T08:26:16.746Z,97417.00
2022-07-25T08:28:43.960Z,97422.00
2022-07-25T08:31:11.184Z,97417.00
2022-07-25T08:33:38.804Z,97420.00
2022-07-25T08:36:06.566Z,97409.00
2022-07-25T08:38:35.498Z,97410.00
2022-07-25T08:41:04.106Z,97415.00
2022-07-25T08:43:33.212Z,97420.00
2022-07-25T08:46:02.299Z,97415.00
2022-07-25T08:48:30.290Z,97411.00
2022-07-25T08:50:59.471Z,97413.00
2022-07-25T08:53:33.145Z,97406.00
2022-07-25T08:56:02.538Z,97408.00
2022-07-25T08:58:32.970Z,97399.00
2022-07-25T09:01:00.075Z,97395.00
2022-07-25T09:03:27.691Z,97399.00
2022-07-25T09:05:54.918Z,97398.00
2022-07-25T09:08:22.191Z,97402.00
2022-07-25T09:10:52.370Z,97390.00
2022-07-25T09:13:22.261Z,97384.00
2022-07-25T09:15:56.868Z,97383.00
2022-07-25T09:18:26.201Z,97388.00
2022-07-25T09:21:02.231Z,97382.00
2022-07-25T09:23:39.628Z,97376.00
2022-07-25T09:26:08.315Z,97372.00
2022-07-25T09:28:51.529Z,97378.00
2022-07-25T09:31:19.318Z,97370.00
2022-07-25T09:33:49.123Z,97372.00
2022-07-25T09:36:16.785Z,97370.00
2022-07-25T09:39:00.971Z,97378.00
2022-07-25T09:41:40.533Z,97376.00
2022-07-25T09:44:23.303Z,97376.00
2022-07-25T09:46:51.093Z,97378.00
2022-07-25T09:49:19.409Z,97375.00
2022-07-25T09:51:47.564Z,97373.00
2022-07-25T09:54:16.063Z,97373.00
2022-07-25T09:56:43.335Z,97370.00
2022-07-25T09:59:10.686Z,97365.00
2022-07-25T10:01:56.996Z,97366.00
2022-07-25T10:04:44.203Z,97369.00
2022-07-25T10:07:15.163Z,97367.00
2022-07-25T10:09:48.612Z,97362.00
2022-07-25T10:12:21.262Z,97358.00
2022-07-25T10:15:08.667Z,97350.00
2022-07-25T10:17:38.127Z,97347.00
2022-07-25T10:20:09.176Z,97346.00
2022-07-25T10:22:56.361Z,97338.00
2022-07-25T10:25:24.608Z,97342.00
2022-07-25T10:28:01.221Z,97336.00
2022-07-25T10:30:39.889Z,97332.00
2022-07-25T10:33:18.023Z,97330.00
2022-07-25T10:35:46.014Z,97335.00
2022-07-25T10:38:13.427Z,97334.00
2022-07-25T10:40:48.124Z,97323.00
2022-07-25T10:43:21.558Z,97320.00
2022-07-25T10:45:53.500Z,97311.00
2022-07-25T10:48:29.679Z,97308.00
2022-07-25T10:51:14.273Z,97309.00
2022-07-25T10:53:49.569Z,97312.00
2022-07-25T10:56:23.108Z,97305.00
2022-07-25T10:59:00.210Z,97299.00
2022-07-25T11:01:34.047Z,97299.00
2022-07-25T11:04:07.005Z,97298.00
2022-07-25T11:06:42.997Z,97296.00
2022-07-25T11:09:28.182Z,97297.00
2022-07-25T11:11:59.893Z,97284.00
2022-07-25T11:14:45.141Z,97289.00
2022-07-25T11:17:24.538Z,97285.00
2022-07-25T11:20:02.537Z,97283.00
2022-07-25T11:22:31.827Z,97273.00
2022-07-25T11:25:00.260Z,97277.00
2022-07-25T11:27:30.861Z,97275.00
2022-07-25T11:30:08.285Z,97273.00
2022-07-25T11:32:45.073Z,97266.00
2022-07-25T11:35:14.600Z,97269.00
2022-07-25T11:37:48.791Z,97271.00
2022-07-25T11:40:17.083Z,97265.00
2022-07-25T11:42:52.720Z,97262.00
2022-07-25T11:45:26.709Z,97261.00
2022-07-25T11:48:10.815Z,97260.00
2022-07-25T11:50:41.542Z,97255.00
2022-07-25T11:53:12.722Z,97252.00
2022-07-25T11:55:41.080Z,97238.00
2022-07-25T11:58:09.730Z,97230.00
2022-07-25T12:00:43.044Z,97235.00
2022-07-25T12:03:18.955Z,97236.00
2022-07-25T12:05:47.949Z,97234.00
2022-07-25T12:08:21.395Z,97229.00
2022-07-25T12:10:51.466Z,97232.00
2022-07-25T12:13:29.240Z,97215.00
2022-07-25T12:15:58.675Z,97218.00
2022-07-25T12:18:28.015Z,97216.00
2022-07-25T12:20:55.208Z,97213.00
2022-07-25T12:23:22.767Z,97212.00
2022-07-25T12:25:50.775Z,97215.00
2022-07-25T12:28:21.169Z,97216.00
2022-07-25T12:30:56.023Z,97215.00
2022-07-25T12:33:24.564Z,97206.00
2022-07-25T12:35:51.806Z,97202.00
2022-07-25T12:38:19.827Z,97209.00
2022-07-25T12:40:47.086Z,97199.00
2022-07-25T12:43:14.355Z,97210.00
2022-07-25T12:45:42.725Z,97209.00
2022-07-25T12:48:10.993Z,97196.00
2022-07-25T12:50:38.230Z,97199.00
2022-07-25T12:53:05.502Z,97204.00
2022-07-25T12:55:33.090Z,97197.00
2022-07-25T12:58:01.102Z,97191.00
2022-07-25T13:00:28.865Z,97188.00
2022-07-25T13:02:56.280Z,97185.00
2022-07-25T13:05:25.693Z,97188.00
2022-07-25T13:07:53.291Z,97184.00
2022-07-25T13:10:20.659Z,97180.00
2022-07-25T13:12:49.508Z,97182.00
2022-07-25T13:15:20.585Z,97183.00
2022-07-25T13:17:47.956Z,97178.00
2022-07-25T13:20:15.779Z,97172.00
2022-07-25T13:22:43.244Z,97178.00
2022-07-25T13:25:10.416Z,97166.00
2022-07-25T13:27:38.734Z,97168.00
2022-07-25T13:30:07.816Z,97164.00
2022-07-25T13:32:35.303Z,97164.00
2022-07-25T13:35:02.929Z,97163.00
2022-07-25T13:37:30.197Z,97156.00
2022-07-25T13:39:57.604Z,97157.00
2022-07-25T13:42:25.182Z,97147.00
2022-07-25T13:44:52.329Z,97145.00
2022-07-25T13:47:19.696Z,97137.00
2022-07-25T13:49:46.857Z,97138.00
2022-07-25T13:52:13.927Z,97140.00
2022-07-25T13:54:41.207Z,97140.00
2022-07-25T13:57:09.483Z,97134.00
2022-07-25T13:59:37.327Z,97139.00
2022-07-25T14:02:04.904Z,97128.00
2022-07-25T14:04:33.600Z,97130.00
2022-07-25T14:07:00.904Z,97124.00
2022-07-25T14:09:28.856Z,97116.00
2022-07-25T14:11:56.038Z,97115.00
2022-07-25T14:14:23.641Z,97115.00
2022-07-25T14:16:51.010Z,97107.00
2022-07-25T14:19:18.449Z,97103.00
2022-07-25T14:21:45.730Z,97100.00
2022-07-25T14:24:12.850Z,97101.00
2022-07-25T14:26:40.113Z,97095.00
2022-07-25T14:29:11.245Z,97094.00
2022-07-25T14:31:40.543Z,97091.00
2022-07-25T14:34:08.635Z,97091.00
2022-07-25T14:36:36.020Z,97081.00
2022-07-25T14:39:04.846Z,97083.00
2022-07-25T14:41:32.312Z,97080.00
2022-07-25T14:44:00.111Z,97072.00
2022-07-25T14:46:27.341Z,97075.00
2022-07-25T14:48:54.753Z,97072.00
2022-07-25T14:51:21.982Z,97065.00
2022-07-25T14:53:53.102Z,97056.00
2022-07-25T14:56:20.705Z,97056.00
2022-07-25T14:58:48.043Z,97056.00
2022-07-25T15:01:18.780Z,97049.00
2022-07-25T15:03:46.271Z,97057.00
2022-07-25T15:06:13.414Z,97047.00
2022-07-25T15:08:40.898Z,97045.00
2022-07-25T15:11:08.006Z,97039.00
2022-07-25T15:13:35.529Z,97036.00
2022-07-25T15:16:03.946Z,97039.00
2022-07-25T15:18:31.870Z,97038.00
2022-07-25T15:20:59.103Z,97035.00
2022-07-25T15:23:29.829Z,97038.00
2022-07-25T15:26:01.671Z,97033.00
2022-07-25T15:28:29.963Z,97029.00
2022-07-25T15:30:57.063Z,97032.00
2022-07-25T15:33:24.593Z,97024.00
2022-07-25T15:35:52.317Z,97014.00
2022-07-25T15:38:19.594Z,97014.00
2022-07-25T15:40:47.110Z,97019.00
2022-07-25T15:43:14.639Z,97018.00
2022-07-25T15:45:44.675Z,97009.00
2022-07-25T15:48:14.195Z,97004.00
2022-07-25T15:50:45.401Z,97007.00
2022-07-25T15:53:13.340Z,96999.00
2022-07-25T15:55:42.249Z,97000.00
2022-07-25T15:58:11.613Z,96998.00
2022-07-25T16:00:40.182Z,96997.00
2022-07-25T16:03:08.414Z,96993.00
2022-07-25T16:05:36.260Z,96984.00
2022-07-25T16:08:04.357Z,96982.00
2022-07-25T16:10:33.098Z,96976.00
2022-07-25T16:13:00.792Z,96982.00
2022-07-25T16:15:28.907Z,96976.00
2022-07-25T16:18:01.909Z,96978.00
2022-07-25T16:20:31.607Z,96966.00
2022-07-25T16:22:59.861Z,96973.00
2022-07-25T16:25:28.671Z,96971.00
2022-07-25T16:27:56.578Z,96969.00
2022-07-25T16:30:24.338Z,96967.00
2022-07-25T16:32:51.590Z,96958.00
2022-07-25T16:35:19.337Z,96967.00
2022-07-25T16:37:46.810Z,96959.00
2022-07-25T16:40:14.543Z,96956.00
2022-07-25T16:42:42.958Z,96956.00
2022-07-25T16:45:10.927Z,96954.00
2022-07-25T16:47:40.162Z,96942.00
2022-07-25T16:50:07.795Z,96947.00
2022-07-25T16:52:35.216Z,96943.00
2022-07-25T16:55:02.702Z,96937.00
2022-07-25T16:57:31.339Z,96934.00
2022-07-25T17:00:00.808Z,96934.00
2022-07-25T17:02:29.950Z,96925.00
2022-07-25T17:04:58.034Z,96933.00
2022-07-25T17:07:26.489Z,96930.00
2022-07-25T17:09:53.658Z,96933.00
2022-07-25T17:12:21.189Z,96930.00
2022-07-25T17:14:48.552Z,96920.00
2022-07-25T17:17:15.616Z,96923.00
2022-07-25T17:19:43.042Z,96923.00
2022-07-25T17:22:10.456Z,96923.00
2022-07-25T17:24:39.608Z,96921.00
2022-07-25T17:27:09.282Z,96918.00
2022-07-25T17:29:37.682Z,96925.00
2022-07-25T17:32:08.401Z,96920.00
2022-07-25T17:34:35.727Z,96925.00
2022-07-25T17:37:03.272Z,96923.00
2022-07-25T17:39:34.395Z,96928.00
2022-07-25T17:42:01.964Z,96923.00
2022-07-25T17:44:29.211Z,96926.00
2022-07-25T17:46:56.474Z,96937.00
2022-07-25T17:49:23.955Z,96931.00
2022-07-25T17:51:51.515Z,96934.00
2022-07-25T17:54:18.847Z,96932.00
2022-07-25T17:56:46.076Z,96933.00
2022-07-25T17:59:13.945Z,96937.00
2022-07-25T18:01:41.145Z,96937.00
2022-07-25T18:04:09.215Z,96940.00
2022-07-25T18:06:36.754Z,96938.00
2022-07-25T18:09:04.863Z,96934.00
2022-07-25T18:11:32.291Z,96937.00
2022-07-25T18:13:59.697Z,96945.00
2022-07-25T18:16:27.234Z,96945.00
2022-07-25T18:18:54.596Z,96947.00
2022-07-25T18:21:21.846Z,96948.00
2022-07-25T18:23:49.172Z,96944.00
2022-07-25T18:26:16.471Z,96954.00
2022-07-25T18:28:44.257Z,96951.00
2022-07-25T18:31:11.635Z,96954.00
2022-07-25T18:33:39.134Z,96949.00
2022-07-25T18:36:07.693Z,96949.00
2022-07-25T18:38:36.183Z,96953.00
2022-07-25T18:41:28.182Z,96958.00
2022-07-25T18:43:53.182Z,96961.00
2022-07-25T18:46:29.069Z,96963.00
2022-07-25T18:48:56.586Z,96969.00
2022-07-25T18:51:27.964Z,96970.00
2022-07-25T18:53:55.528Z,96976.00
2022-07-25T18:56:22.721Z,96974.00
2022-07-25T18:58:50.177Z,96981.00
2022-07-25T19:01:17.641Z,96986.00
2022-07-25T19:03:44.998Z,96987.00
2022-07-25T19:06:12.232Z,96986.00
2022-07-25T19:08:39.837Z,96982.00
2022-07-25T19:11:08.572Z,96991.00
2022-07-25T19:13:49.669Z,96986.00
2022-07-25T19:16:17.815Z,97001.00
2022-07-25T19:18:45.313Z,97038.00
2022-07-25T19:21:12.495Z,97051.00
2022-07-25T19:23:39.762Z,97052.00
2022-07-25T19:26:06.910Z,97046.00
2022-07-25T19:28:36.128Z,97052.00
2022-07-25T19:31:03.610Z,97049.00
2022-07-25T19:33:35.923Z,97051.00
2022-07-25T19:36:04.569Z,97052.00
2022-07-25T19:38:32.709Z,97057.00
2022-07-25T19:41:00.837Z,97050.00
2022-07-25T19:43:28.138Z,97044.00
2022-07-25T19:45:55.470Z,97049.00
2022-07-25T19:48:24.193Z,97042.00
2022-07-25T19:50:52.728Z,97039.00
2022-07-25T19:53:24.154Z,97037.00
2022-07-25T19:55:54.091Z,97031.00
2022-07-25T19:58:21.465Z,97032.00
2022-07-25T20:00:48.654Z,97033.00
2022-07-25T20:03:16.091Z,97032.00
2022-07-25T20:05:50.626Z,97031.00
2022-07-25T20:08:19.072Z,97028.00
2022-07-25T20:10:47.508Z,97025.00
2022-07-25T20:13:15.097Z,97023.00
2022-07-25T20:15:42.240Z,97034.00
2022-07-25T20:18:09.455Z,97041.00
2022-07-25T20:20:36.661Z,97038.00
2022-07-25T20:23:04.705Z,97031.00
2022-07-25T20:25:32.144Z,97028.00
2022-07-25T20:28:00.234Z,97037.00
2022-07-25T20:30:30.375Z,97037.00
2022-07-25T20:33:01.742Z,97034.00
2022-07-25T20:35:37.203Z,97042.00
2022-07-25T20:38:09.727Z,97029.00
2022-07-25T20:40:48.012Z,97023.00
2022-07-25T20:43:16.856Z,97022.00
2022-07-25T20:45:44.218Z,97017.00
2022-07-25T20:48:11.529Z,97023.00
2022-07-25T20:50:40.068Z,97019.00
2022-07-25T20:53:08.567Z,97014.00
2022-07-25T20:55:36.440Z,97016.00
2022-07-25T20:58:05.104Z,97011.00
2022-07-25T21:00:32.696Z,97015.00
2022-07-25T21:03:00.986Z,97000.00
2022-07-25T21:05:28.631Z,97013.00
2022-07-25T21:07:56.709Z,97018.00
2022-07-25T21:10:24.205Z,97019.00
2022-07-25T21:12:53.091Z,97029.00
2022-07-25T21:15:20.192Z,97030.00
2022-07-25T21:17:47.518Z,97042.00
2022-07-25T21:20:15.529Z,97049.00
2022-07-25T21:22:43.370Z,97058.00
2022-07-25T21:25:11.315Z,97064.00
2022-07-25T21:27:39.407Z,97074.00
2022-07-25T21:30:09.948Z,97077.00
2022-07-25T21:32:39.225Z,97089.00
2022-07-25T21:35:07.336Z,97097.00
2022-07-25T21:37:34.487Z,97117.00
2022-07-25T21:40:01.926Z,97141.00
2022-07-25T21:42:29.862Z,97147.00
2022-07-25T21:44:57.163Z,97152.00
2022-07-25T21:47:24.449Z,97157.00
2022-07-25T21:50:10.497Z,97183.00
2022-07-25T21:52:40.716Z,97193.00
2022-07-25T21:55:08.528Z,97219.00
2022-07-25T21:57:35.757Z,97230.00
2022-07-25T22:00:06.850Z,97235.00
2022-07-25T22:02:34.601Z,97252.00
2022-07-25T22:05:01.784Z,97256.00
2022-07-25T22:07:29.616Z,97272.00
2022-07-25T22:09:56.754Z,97288.00
2022-07-25T22:12:24.624Z,97301.00
2022-07-25T22:14:51.778Z,97309.00
2022-07-25T22:17:18.997Z,97312.00
2022-07-25T22:19:46.232Z,97315.00
2022-07-25T22:22:13.756Z,97333.00
2022-07-25T22:24:46.045Z,97362.00
2022-07-25T22:27:13.939Z,97387.00
2022-07-25T22:29:41.277Z,97423.00
2022-07-25T22:32:08.962Z,97443.00
2022-07-25T22:34:36.389Z,97477.00
2022-07-25T22:37:03.724Z,97463.00
2022-07-25T22:39:31.139Z,97487.00
2022-07-25T22:41:58.248Z,97501.00
2022-07-25T22:44:25.559Z,97510.00
2022-07-25T22:46:52.668Z,97513.00
2022-07-25T22:49:19.946Z,97521.00
2022-07-25T22:51:47.184Z,97512.00
2022-07-25T22:54:14.491Z,97521.00
2022-07-25T22:56:41.644Z,97509.00
2022-07-25T22:59:09.277Z,97527.00
2022-07-25T23:01:36.628Z,97537.00
2022-07-25T23:04:03.961Z,97539.00
2022-07-25T23:06:31.195Z,97548.00
2022-07-25T23:08:58.451Z,97550.00
2022-07-25T23:11:27.291Z,97565.00
2022-07-25T23:13:54.626Z,97566.00
2022-07-25T23:16:22.144Z,97568.00
2022-07-25T23:18:49.426Z,97577.00
2022-07-25T23:21:16.624Z,97586.00
2022-07-25T23:23:43.839Z,97587.00
2022-07-25T23:26:11.200Z,97596.00
2022-07-25T23:28:38.808Z,97602.00
2022-07-25T23:31:06.110Z,97600.00
2022-07-25T23:33:33.775Z,97595.00
2022-07-25T23:36:01.329Z,97598.00
2022-07-25T23:38:28.577Z,97596.00
2022-07-25T23:40:55.747Z,97591.00
2022-07-25T23:43:33.583Z,97609.00
2022-07-25T23:46:10.376Z,97607.00
2022-07-25T23:48:39.022Z,97604.00
2022-07-25T23:51:06.729Z,97617.00
2022-07-25T23:53:34.159Z,97611.00
2022-07-25T23:56:01.331Z,97610.00
2022-07-25T23:58:28.596Z,97604.00
